createdAt,value
2018-05-14T00:01:08.214Z,68.70
2018-05-14T00:03:35.830Z,70.00
2018-05-14T00:06:03.446Z,69.41
2018-05-14T00:08:31.061Z,68.16
2018-05-14T00:10:58.632Z,68.78
2018-05-14T00:13:26.206Z,69.43
2018-05-14T00:15:53.782Z,67.50
2018-05-14T00:18:21.398Z,67.73
2018-05-14T00:20:49.078Z,67.63
2018-05-14T00:23:16.697Z,69.22
2018-05-14T00:25:44.281Z,69.22
2018-05-14T00:28:11.901Z,68.84
2018-05-14T00:30:39.486Z,69.04
2018-05-14T00:33:07.158Z,68.88
2018-05-14T00:35:35.658Z,68.11
2018-05-14T00:38:03.272Z,70.17
2018-05-14T00:40:30.845Z,69.85
2018-05-14T00:42:58.465Z,67.84
2018-05-14T00:45:26.047Z,69.51
2018-05-14T00:47:53.627Z,69.21
2018-05-14T00:50:21.310Z,70.51
2018-05-14T00:52:49.005Z,68.15
2018-05-14T00:55:17.345Z,70.65
2018-05-14T00:57:44.922Z,70.26
2018-05-14T01:00:13.448Z,71.55
2018-05-14T01:02:41.035Z,70.52
2018-05-14T01:05:08.659Z,68.38
2018-05-14T01:07:36.246Z,68.95
2018-05-14T01:10:03.898Z,70.34
2018-05-14T01:12:31.475Z,69.34
2018-05-14T01:14:59.093Z,70.40
2018-05-14T01:17:26.671Z,69.41
2018-05-14T01:19:55.081Z,71.37
2018-05-14T01:22:22.652Z,70.78
2018-05-14T01:24:55.879Z,72.51
2018-05-14T01:27:23.458Z,71.87
2018-05-14T01:29:51.030Z,71.89
2018-05-14T01:32:18.601Z,71.00
2018-05-14T01:34:46.180Z,71.15
2018-05-14T01:37:13.761Z,69.25
2018-05-14T01:39:41.337Z,71.22
2018-05-14T01:42:08.917Z,71.60
2018-05-14T01:44:36.497Z,72.19
2018-05-14T01:47:04.165Z,73.09
2018-05-14T01:49:31.737Z,73.54
2018-05-14T01:51:59.371Z,72.92
2018-05-14T01:54:26.945Z,73.86
2018-05-14T01:56:54.518Z,74.07
2018-05-14T01:59:22.094Z,74.29
2018-05-14T02:01:49.680Z,74.47
2018-05-14T02:04:17.261Z,74.89
2018-05-14T02:06:44.840Z,74.40
2018-05-14T02:09:12.417Z,73.81
2018-05-14T02:11:39.994Z,74.16
2018-05-14T02:14:07.569Z,74.15
2018-05-14T02:16:35.148Z,74.62
2018-05-14T02:19:02.723Z,72.38
2018-05-14T02:21:30.369Z,74.54
2018-05-14T02:23:57.985Z,75.07
2018-05-14T02:26:25.590Z,75.98
2018-05-14T02:28:53.395Z,75.37
2018-05-14T02:31:21.731Z,75.10
2018-05-14T02:33:50.090Z,75.07
2018-05-14T02:36:17.702Z,74.73
2018-05-14T02:38:45.293Z,75.85
2018-05-14T02:41:12.876Z,76.03
2018-05-14T02:43:41.277Z,76.23
2018-05-14T02:46:08.855Z,75.65
2018-05-14T02:48:36.430Z,75.80
2018-05-14T02:51:04.064Z,77.09
2018-05-14T02:53:31.728Z,76.23
2018-05-14T02:55:59.347Z,77.04
2018-05-14T02:58:26.925Z,75.17
2018-05-14T03:00:54.511Z,75.88
2018-05-14T03:03:22.089Z,77.76
2018-05-14T03:05:49.664Z,77.64
2018-05-14T03:08:17.249Z,77.60
2018-05-14T03:10:44.830Z,76.13
2018-05-14T03:13:12.407Z,76.22
2018-05-14T03:15:40.084Z,77.75
2018-05-14T03:18:07.679Z,78.58
2018-05-14T03:20:35.263Z,78.22
2018-05-14T03:23:02.872Z,78.04
2018-05-14T03:25:30.464Z,77.80
2018-05-14T03:27:58.041Z,78.61
2018-05-14T03:30:25.618Z,78.35
2018-05-14T03:32:53.201Z,78.20
2018-05-14T03:35:20.777Z,78.38
2018-05-14T03:37:48.473Z,78.79
2018-05-14T03:40:16.051Z,77.16
2018-05-14T03:42:44.226Z,77.97
2018-05-14T03:45:11.800Z,76.40
2018-05-14T03:47:39.402Z,75.68
2018-05-14T03:50:06.977Z,75.51
2018-05-14T03:52:35.497Z,77.58
2018-05-14T03:55:03.068Z,74.75
2018-05-14T03:57:31.434Z,76.18
2018-05-14T04:00:10.829Z,75.77
2018-05-14T04:02:50.395Z,75.92
2018-05-14T04:05:17.977Z,76.33
2018-05-14T04:07:45.562Z,76.38
2018-05-14T04:10:13.130Z,76.54
2018-05-14T04:12:42.545Z,76.73
2018-05-14T04:15:10.130Z,75.57
2018-05-14T04:17:37.706Z,75.49
2018-05-14T04:20:05.284Z,74.90
2018-05-14T04:22:32.853Z,74.79
2018-05-14T04:25:00.432Z,75.12
2018-05-14T04:27:28.012Z,75.92
2018-05-14T04:29:55.859Z,74.57
2018-05-14T04:32:23.481Z,75.42
2018-05-14T04:34:51.113Z,74.71
2018-05-14T04:37:18.686Z,74.80
2018-05-14T04:39:47.249Z,73.36
2018-05-14T04:42:14.833Z,73.17
2018-05-14T04:44:42.410Z,73.54
2018-05-14T04:47:09.990Z,74.28
2018-05-14T04:49:37.567Z,73.67
2018-05-14T04:52:05.161Z,73.18
2018-05-14T04:54:32.797Z,73.13
2018-05-14T04:57:00.483Z,73.30
2018-05-14T04:59:28.070Z,72.46
2018-05-14T05:01:55.659Z,71.90
2018-05-14T05:04:23.271Z,73.96
2018-05-14T05:06:50.853Z,71.30
2018-05-14T05:09:18.429Z,72.46
2018-05-14T05:11:46.008Z,71.40
2018-05-14T05:14:13.614Z,72.46
2018-05-14T05:16:41.197Z,71.77
2018-05-14T05:19:08.805Z,71.08
2018-05-14T05:21:36.385Z,71.45
2018-05-14T05:24:04.769Z,70.04
2018-05-14T05:26:32.349Z,71.86
2018-05-14T05:28:59.932Z,70.92
2018-05-14T05:31:27.511Z,71.01
2018-05-14T05:33:55.085Z,70.05
2018-05-14T05:36:22.669Z,70.67
2018-05-14T05:38:50.245Z,70.18
2018-05-14T05:41:17.914Z,69.44
2018-05-14T05:43:45.496Z,71.44
2018-05-14T05:46:13.076Z,69.90
2018-05-14T05:48:40.725Z,70.44
2018-05-14T05:51:08.308Z,69.36
2018-05-14T05:53:35.882Z,70.30
2018-05-14T05:56:03.459Z,70.49
2018-05-14T05:58:31.038Z,70.05
2018-05-14T06:00:58.623Z,68.98
2018-05-14T06:03:26.209Z,67.68
2018-05-14T06:05:57.606Z,66.92
2018-05-14T06:08:25.179Z,65.32
2018-05-14T06:10:53.761Z,65.76
2018-05-14T06:13:21.341Z,65.39
2018-05-14T06:15:48.930Z,68.06
2018-05-14T06:18:16.502Z,63.38
2018-05-14T06:20:44.074Z,60.50
2018-05-14T06:23:11.657Z,62.81
2018-05-14T06:25:39.234Z,60.41
2018-05-14T06:28:06.816Z,61.75
2018-05-14T06:30:34.389Z,63.02
2018-05-14T06:33:01.977Z,60.65
2018-05-14T06:35:30.566Z,61.30
2018-05-14T06:37:58.988Z,62.19
2018-05-14T06:40:26.660Z,61.11
2018-05-14T06:42:54.173Z,57.97
2018-05-14T06:45:21.749Z,63.13
2018-05-14T06:47:49.325Z,56.57
2018-05-14T06:50:17.899Z,59.46
2018-05-14T06:52:46.239Z,58.32
2018-05-14T06:55:13.860Z,59.79
2018-05-14T06:57:41.423Z,57.68
2018-05-14T07:00:09.001Z,58.92
2018-05-14T07:02:36.580Z,62.26
2018-05-14T07:05:04.157Z,58.32
2018-05-14T07:07:31.733Z,59.07
2018-05-14T07:09:59.315Z,55.38
2018-05-14T07:12:26.883Z,58.54
2018-05-14T07:14:54.462Z,55.63
2018-05-14T07:17:22.045Z,55.20
2018-05-14T07:19:50.535Z,55.30
2018-05-14T07:22:18.106Z,57.27
2018-05-14T07:24:45.700Z,56.20
2018-05-14T07:27:13.289Z,58.89
2018-05-14T07:29:40.865Z,54.43
2018-05-14T07:32:08.499Z,52.13
2018-05-14T07:34:38.010Z,52.08
2018-05-14T07:37:05.589Z,51.62
2018-05-14T07:39:33.165Z,51.72
2018-05-14T07:42:00.761Z,52.03
2018-05-14T07:44:28.343Z,52.96
2018-05-14T07:46:55.918Z,51.10
2018-05-14T07:49:23.492Z,51.89
2018-05-14T07:51:51.074Z,51.53
2018-05-14T07:54:18.739Z,51.23
2018-05-14T07:56:46.261Z,50.72
2018-05-14T07:59:13.831Z,51.51
2018-05-14T08:01:41.398Z,52.20
2018-05-14T08:04:08.965Z,50.86
2018-05-14T08:06:36.536Z,49.05
2018-05-14T08:09:04.114Z,49.66
2018-05-14T08:11:31.681Z,47.89
2018-05-14T08:14:00.228Z,51.85
2018-05-14T08:16:27.770Z,47.42
2018-05-14T08:18:55.344Z,47.90
2018-05-14T08:21:22.917Z,46.55
2018-05-14T08:23:50.829Z,48.94
2018-05-14T08:26:18.409Z,46.24
2018-05-14T08:28:45.984Z,46.24
2018-05-14T08:31:13.569Z,46.29
2018-05-14T08:33:41.158Z,47.21
2018-05-14T08:36:08.823Z,45.41
2018-05-14T08:38:36.357Z,43.32
2018-05-14T08:41:03.929Z,46.17
2018-05-14T08:43:31.506Z,46.01
2018-05-14T08:45:59.092Z,42.54
2018-05-14T08:48:26.666Z,41.79
2018-05-14T08:50:54.436Z,43.26
2018-05-14T08:53:21.844Z,40.37
2018-05-14T08:55:49.409Z,41.08
2018-05-14T08:58:17.073Z,38.20
2018-05-14T09:00:44.611Z,41.22
2018-05-14T09:03:12.188Z,39.00
2018-05-14T09:05:39.765Z,38.41
2018-05-14T09:08:07.342Z,38.90
2018-05-14T09:10:34.917Z,38.64
2018-05-14T09:13:02.496Z,36.60
2018-05-14T09:15:30.066Z,39.00
2018-05-14T09:17:57.634Z,40.29
2018-05-14T09:20:25.205Z,39.75
2018-05-14T09:22:52.784Z,39.58
2018-05-14T09:25:20.365Z,37.70
2018-05-14T09:27:47.941Z,37.58
2018-05-14T09:30:15.511Z,39.41
2018-05-14T09:32:43.890Z,36.79
2018-05-14T09:35:12.181Z,34.17
2018-05-14T09:37:39.753Z,35.41
2018-05-14T09:40:07.694Z,33.40
2018-05-14T09:42:35.268Z,37.20
2018-05-14T09:45:03.548Z,35.86
2018-05-14T09:47:31.912Z,33.70
2018-05-14T09:50:00.262Z,33.37
2018-05-14T09:52:28.827Z,33.80
2018-05-14T09:54:56.413Z,33.86
2018-05-14T09:57:24.026Z,35.06
2018-05-14T09:59:52.301Z,32.45
2018-05-14T10:02:19.881Z,36.13
2018-05-14T10:04:47.454Z,32.71
2018-05-14T10:07:15.025Z,32.52
2018-05-14T10:09:42.602Z,35.54
2018-05-14T10:12:10.875Z,33.26
2018-05-14T10:14:38.454Z,32.71
2018-05-14T10:17:06.026Z,33.48
2018-05-14T10:19:34.506Z,34.33
2018-05-14T10:22:02.081Z,32.76
2018-05-14T10:24:29.652Z,33.55
2018-05-14T10:26:57.225Z,31.70
2018-05-14T10:29:24.799Z,30.32
2018-05-14T10:31:52.412Z,31.49
2018-05-14T10:34:19.981Z,31.81
2018-05-14T10:36:47.559Z,32.54
2018-05-14T10:39:15.133Z,32.90
2018-05-14T10:41:42.710Z,32.23
2018-05-14T10:44:10.285Z,34.01
2018-05-14T10:46:37.931Z,33.66
2018-05-14T10:49:06.152Z,32.97
2018-05-14T10:51:34.426Z,30.34
2018-05-14T10:54:02.772Z,29.42
2018-05-14T10:56:31.109Z,29.93
2018-05-14T10:58:59.389Z,31.46
2018-05-14T11:01:26.965Z,30.67
2018-05-14T11:03:54.612Z,29.83
2018-05-14T11:06:22.190Z,31.19
2018-05-14T11:08:49.770Z,29.69
2018-05-14T11:11:17.346Z,33.02
2018-05-14T11:13:44.921Z,28.11
2018-05-14T11:16:12.545Z,31.21
2018-05-14T11:18:40.177Z,32.34
2018-05-14T11:21:07.749Z,33.94
2018-05-14T11:23:35.324Z,34.26
2018-05-14T11:26:02.910Z,31.42
2018-05-14T11:28:30.522Z,30.49
2018-05-14T11:30:58.090Z,31.99
2018-05-14T11:33:25.660Z,31.32
2018-05-14T11:35:53.233Z,31.78
2018-05-14T11:38:20.807Z,33.37
2018-05-14T11:40:48.378Z,30.16
2018-05-14T11:43:15.969Z,30.01
2018-05-14T11:45:43.568Z,32.35
2018-05-14T11:48:11.186Z,29.91
2018-05-14T11:50:38.762Z,31.69
2018-05-14T11:53:06.349Z,32.64
2018-05-14T11:55:33.926Z,31.90
2018-05-14T11:58:01.501Z,31.77
2018-05-14T12:00:29.079Z,30.15
2018-05-14T12:02:56.703Z,33.86
2018-05-14T12:05:24.270Z,30.66
2018-05-14T12:07:51.906Z,30.53
2018-05-14T12:10:19.482Z,30.02
2018-05-14T12:12:47.065Z,30.80
2018-05-14T12:15:14.644Z,30.03
2018-05-14T12:17:42.258Z,30.59
2018-05-14T12:20:10.747Z,34.36
2018-05-14T12:22:38.366Z,33.09
2018-05-14T12:25:05.944Z,30.95
2018-05-14T12:27:33.516Z,30.43
2018-05-14T12:30:01.091Z,30.24
2018-05-14T12:32:28.675Z,29.64
2018-05-14T12:34:56.248Z,33.37
2018-05-14T12:37:23.848Z,30.66
2018-05-14T12:39:51.431Z,32.12
2018-05-14T12:42:19.925Z,31.65
2018-05-14T12:44:47.501Z,30.63
2018-05-14T12:47:15.072Z,30.79
2018-05-14T12:52:23.300Z,30.53
2018-05-14T12:54:50.878Z,30.53
2018-05-14T12:57:18.592Z,32.63
2018-05-14T12:59:47.007Z,30.74
2018-05-14T13:02:15.349Z,30.66
2018-05-14T13:04:42.924Z,31.88
2018-05-14T13:07:10.537Z,30.57
2018-05-14T13:09:38.921Z,30.95
2018-05-14T13:12:07.278Z,31.21
2018-05-14T13:14:35.641Z,30.61
2018-05-14T13:17:03.977Z,31.18
2018-05-14T13:19:31.552Z,31.53
2018-05-14T13:22:00.050Z,30.39
2018-05-14T13:24:27.621Z,31.87
2018-05-14T13:26:55.188Z,31.62
2018-05-14T13:29:23.593Z,29.40
2018-05-14T13:31:51.162Z,32.09
2018-05-14T13:34:19.677Z,30.82
2018-05-14T13:36:47.951Z,30.88
2018-05-14T13:39:16.345Z,32.36
2018-05-14T13:41:43.921Z,30.35
2018-05-14T13:44:11.619Z,30.51
2018-05-14T13:46:39.154Z,32.12
2018-05-14T13:49:06.725Z,29.23
2018-05-14T13:51:34.337Z,30.67
2018-05-14T13:54:01.913Z,29.20
2018-05-14T13:56:29.552Z,28.44
2018-05-14T13:58:57.138Z,28.42
2018-05-14T14:01:24.747Z,28.79
2018-05-14T14:03:53.213Z,29.48
2018-05-14T14:06:20.799Z,29.27
2018-05-14T14:08:48.378Z,29.77
2018-05-14T14:11:15.958Z,31.02
2018-05-14T14:13:44.477Z,31.77
2018-05-14T14:16:12.044Z,29.61
2018-05-14T14:18:39.662Z,28.45
2018-05-14T14:21:07.237Z,28.34
2018-05-14T14:23:34.958Z,29.62
2018-05-14T14:26:02.470Z,29.70
2018-05-14T14:28:30.059Z,29.01
2018-05-14T14:30:57.633Z,31.36
2018-05-14T14:33:25.213Z,29.38
2018-05-14T14:35:52.885Z,29.07
2018-05-14T14:38:20.401Z,29.25
2018-05-14T14:40:47.977Z,29.88
2018-05-14T14:43:15.556Z,29.54
2018-05-14T14:45:43.126Z,28.89
2018-05-14T14:48:10.698Z,28.97
2018-05-14T14:50:38.275Z,27.26
2018-05-14T14:53:05.853Z,28.25
2018-05-14T14:55:33.422Z,28.05
2018-05-14T14:58:00.993Z,27.19
2018-05-14T15:00:28.569Z,26.91
2018-05-14T15:02:56.145Z,25.56
2018-05-14T15:05:23.716Z,26.97
2018-05-14T15:07:51.289Z,25.99
2018-05-14T15:10:18.908Z,26.40
2018-05-14T15:12:46.482Z,26.10
2018-05-14T15:15:14.097Z,25.81
2018-05-14T15:17:41.678Z,25.43
2018-05-14T15:20:09.302Z,26.56
2018-05-14T15:22:37.765Z,26.39
2018-05-14T15:25:05.333Z,28.06
2018-05-14T15:27:32.901Z,27.28
2018-05-14T15:30:00.480Z,25.92
2018-05-14T15:32:28.057Z,26.32
2018-05-14T15:34:55.628Z,26.01
2018-05-14T15:37:23.206Z,25.88
2018-05-14T15:39:50.780Z,25.40
2018-05-14T15:42:19.269Z,26.59
2018-05-14T15:44:46.849Z,25.33
2018-05-14T15:47:14.425Z,26.38
2018-05-14T15:49:42.000Z,25.95
2018-05-14T15:52:09.565Z,28.37
2018-05-14T15:54:37.132Z,29.51
2018-05-14T15:57:04.743Z,29.68
2018-05-14T15:59:33.155Z,31.14
2018-05-14T16:02:00.732Z,32.76
2018-05-14T16:04:28.302Z,31.52
2018-05-14T16:06:55.883Z,32.16
2018-05-14T16:09:23.505Z,32.73
2018-05-14T16:11:51.101Z,33.29
2018-05-14T16:14:18.717Z,33.52
2018-05-14T16:16:46.306Z,32.19
2018-05-14T16:19:13.876Z,32.56
2018-05-14T16:21:42.336Z,36.50
2018-05-14T16:24:10.686Z,35.33
2018-05-14T16:26:38.369Z,33.59
2018-05-14T16:29:05.989Z,34.45
2018-05-14T16:31:33.530Z,33.67
2018-05-14T16:34:01.934Z,34.26
2018-05-14T16:36:29.510Z,33.18
2018-05-14T16:38:57.093Z,32.83
2018-05-14T16:41:24.665Z,33.07
2018-05-14T16:43:52.241Z,33.46
2018-05-14T16:46:19.817Z,33.56
2018-05-14T16:48:47.397Z,35.78
2018-05-14T16:51:15.881Z,35.79
2018-05-14T16:53:44.534Z,36.57
2018-05-14T16:56:12.104Z,35.34
2018-05-14T16:58:40.509Z,35.41
2018-05-14T17:01:08.090Z,39.30
2018-05-14T17:03:35.666Z,36.60
2018-05-14T17:06:03.286Z,38.00
2018-05-14T17:08:30.869Z,38.03
2018-05-14T17:10:58.442Z,41.20
2018-05-14T17:13:26.017Z,41.83
2018-05-14T17:15:53.638Z,38.86
2018-05-14T17:18:21.222Z,40.68
2018-05-14T17:20:48.813Z,40.19
2018-05-14T17:23:16.394Z,39.56
2018-05-14T17:25:44.882Z,40.19
2018-05-14T17:28:12.514Z,38.64
2018-05-14T17:30:40.092Z,39.58
2018-05-14T17:33:07.666Z,37.02
2018-05-14T17:35:35.237Z,37.51
2018-05-14T17:38:02.812Z,39.37
2018-05-14T17:40:31.344Z,41.60
2018-05-14T17:42:58.927Z,42.15
2018-05-14T17:45:26.500Z,38.95
2018-05-14T17:47:54.085Z,40.71
2018-05-14T17:50:21.705Z,39.69
2018-05-14T17:52:49.338Z,44.24
2018-05-14T17:55:16.940Z,41.95
2018-05-14T17:57:44.521Z,40.49
2018-05-14T18:00:12.133Z,41.95
2018-05-14T18:02:39.712Z,40.43
2018-05-14T18:05:08.227Z,44.14
2018-05-14T18:07:35.770Z,40.00
2018-05-14T18:10:03.355Z,41.09
2018-05-14T18:12:31.854Z,41.85
2018-05-14T18:14:59.434Z,42.18
2018-05-14T18:17:27.073Z,43.34
2018-05-14T18:20:00.093Z,41.43
2018-05-14T18:22:31.642Z,42.32
2018-05-14T18:25:04.918Z,42.73
2018-05-14T18:27:32.483Z,44.77
2018-05-14T18:30:05.670Z,45.43
2018-05-14T18:32:33.288Z,44.54
2018-05-14T18:35:06.475Z,46.20
2018-05-14T18:37:34.045Z,45.42
2018-05-14T18:40:02.398Z,47.87
2018-05-14T18:42:30.814Z,45.66
2018-05-14T18:44:59.223Z,46.14
2018-05-14T18:47:26.811Z,46.04
2018-05-14T18:49:54.561Z,46.36
2018-05-14T18:52:22.199Z,44.48
2018-05-14T18:54:49.854Z,46.68
2018-05-14T18:57:17.435Z,46.93
2018-05-14T18:59:45.031Z,48.00
2018-05-14T19:02:12.753Z,48.08
2018-05-14T19:04:40.343Z,47.61
2018-05-14T19:07:07.917Z,47.78
2018-05-14T19:09:35.538Z,47.53
2018-05-14T19:12:03.262Z,48.59
2018-05-14T19:14:30.849Z,49.20
2018-05-14T19:17:04.026Z,49.17
2018-05-14T19:19:31.612Z,48.86
2018-05-14T19:21:59.197Z,49.93
2018-05-14T19:24:26.770Z,50.63
2018-05-14T19:26:54.351Z,50.97
2018-05-14T19:29:27.635Z,51.03
2018-05-14T19:31:56.080Z,51.43
2018-05-14T19:34:29.297Z,51.34
2018-05-14T19:36:56.901Z,51.77
2018-05-14T19:39:30.097Z,51.27
2018-05-14T19:41:58.581Z,53.00
2018-05-14T19:44:26.167Z,54.35
2018-05-14T19:46:53.749Z,52.61
2018-05-14T19:49:21.401Z,52.51
2018-05-14T19:51:48.986Z,53.07
2018-05-14T19:54:16.667Z,53.83
2018-05-14T19:56:44.245Z,54.43
2018-05-14T19:59:11.909Z,53.01
2018-05-14T20:01:40.301Z,52.70
2018-05-14T20:04:08.647Z,52.74
2018-05-14T20:06:37.028Z,54.34
2018-05-14T20:09:04.611Z,54.06
2018-05-14T20:11:33.145Z,53.64
2018-05-14T20:14:01.489Z,52.32
2018-05-14T20:16:29.962Z,51.44
2018-05-14T20:18:57.613Z,52.29
2018-05-14T20:21:25.185Z,51.88
2018-05-14T20:23:52.814Z,51.17
2018-05-14T20:26:20.411Z,52.39
2018-05-14T20:28:48.065Z,53.50
2018-05-14T20:31:15.652Z,55.10
2018-05-14T20:33:43.288Z,53.43
2018-05-14T20:36:10.988Z,52.66
2018-05-14T20:38:38.610Z,52.45
2018-05-14T20:41:06.233Z,54.57
2018-05-14T20:43:33.834Z,55.35
2018-05-14T20:46:01.460Z,53.80
2018-05-14T20:48:29.033Z,54.33
2018-05-14T20:50:56.667Z,54.06
2018-05-14T20:53:25.149Z,55.09
2018-05-14T20:55:53.600Z,56.72
2018-05-14T20:58:22.082Z,56.27
2018-05-14T21:00:50.405Z,56.56
2018-05-14T21:03:18.797Z,58.16
2018-05-14T21:05:47.242Z,56.24
2018-05-14T21:08:14.804Z,56.29
2018-05-14T21:10:42.417Z,57.53
2018-05-14T21:13:10.139Z,58.01
2018-05-14T21:15:38.951Z,57.03
2018-05-14T21:18:06.575Z,59.00
2018-05-14T21:20:34.160Z,59.38
2018-05-14T21:23:02.895Z,57.99
2018-05-14T21:25:30.482Z,57.21
2018-05-14T21:27:58.100Z,59.08
2018-05-14T21:30:25.678Z,60.32
2018-05-14T21:32:53.261Z,59.36
2018-05-14T21:35:20.908Z,58.61
2018-05-14T21:37:48.447Z,59.22
2018-05-14T21:40:16.022Z,59.77
2018-05-14T21:42:43.601Z,60.22
2018-05-14T21:45:11.216Z,60.82
2018-05-14T21:47:38.796Z,60.37
2018-05-14T21:50:06.381Z,60.97
2018-05-14T21:52:33.958Z,60.22
2018-05-14T21:55:01.535Z,60.75
2018-05-14T21:57:29.154Z,61.49
2018-05-14T21:59:56.721Z,61.82
2018-05-14T22:02:24.373Z,62.75
2018-05-14T22:04:51.957Z,63.27
2018-05-14T22:07:19.536Z,62.91
2018-05-14T22:09:47.113Z,63.57
2018-05-14T22:12:15.494Z,64.33
2018-05-14T22:14:43.861Z,63.71
2018-05-14T22:17:12.337Z,63.62
2018-05-14T22:19:39.921Z,64.32
2018-05-14T22:22:07.497Z,64.47
2018-05-14T22:24:35.072Z,63.52
2018-05-14T22:27:02.647Z,64.54
2018-05-14T22:29:31.052Z,64.93
2018-05-14T22:31:59.519Z,64.71
2018-05-14T22:34:27.138Z,65.79
2018-05-14T22:36:54.713Z,64.73
2018-05-14T22:39:22.290Z,65.83
2018-05-14T22:41:49.865Z,65.92
2018-05-14T22:44:18.262Z,66.03
2018-05-14T22:46:46.717Z,66.54
2018-05-14T22:49:14.297Z,68.10
2018-05-14T22:51:41.909Z,70.64
2018-05-14T22:54:10.269Z,70.97
2018-05-14T22:56:38.637Z,70.14
2018-05-14T22:59:07.046Z,68.75
2018-05-14T23:01:35.394Z,67.39
2018-05-14T23:04:02.972Z,67.53
2018-05-14T23:06:30.545Z,69.70
2018-05-14T23:08:58.121Z,68.86
2018-05-14T23:11:26.461Z,69.30
2018-05-14T23:13:54.828Z,68.34
2018-05-14T23:16:23.093Z,69.26
2018-05-14T23:18:51.766Z,68.14
2018-05-14T23:21:20.143Z,68.59
2018-05-14T23:23:48.407Z,69.84
2018-05-14T23:26:16.808Z,70.21
2018-05-14T23:28:45.186Z,70.42
2018-05-14T23:31:13.565Z,69.52
2018-05-14T23:33:41.925Z,69.82
2018-05-14T23:36:09.546Z,71.10
2018-05-14T23:38:37.796Z,70.21
2018-05-14T23:41:05.410Z,69.31
2018-05-14T23:43:33.764Z,71.36
2018-05-14T23:46:02.162Z,70.39
2018-05-14T23:48:30.448Z,72.70
2018-05-14T23:50:58.885Z,72.15
2018-05-14T23:53:27.470Z,72.42
2018-05-14T23:55:55.054Z,73.47
2018-05-14T23:58:23.467Z,72.06
